createdAt,value
2023-08-27T00:02:50.490Z,3.40
2023-08-27T00:05:54.513Z,4.00
2023-08-27T00:08:58.409Z,3.90
2023-08-27T00:12:01.101Z,3.70
2023-08-27T00:15:04.826Z,3.67
2023-08-27T00:18:07.879Z,3.58
2023-08-27T00:21:11.937Z,3.88
2023-08-27T00:24:14.604Z,4.47
2023-08-27T00:27:17.481Z,3.55
2023-08-27T00:30:20.395Z,3.25
2023-08-27T00:33:23.299Z,3.95
2023-08-27T00:36:27.330Z,3.17
2023-08-27T00:39:30.351Z,2.47
2023-08-27T00:42:33.073Z,2.20
2023-08-27T00:45:35.726Z,3.30
2023-08-27T00:48:38.402Z,3.38
2023-08-27T00:51:43.984Z,3.40
2023-08-27T00:54:48.550Z,3.78
2023-08-27T00:57:52.012Z,4.00
2023-08-27T01:00:54.704Z,4.55
2023-08-27T01:03:57.318Z,4.47
2023-08-27T01:07:06.529Z,4.25
2023-08-27T01:10:14.289Z,5.18
2023-08-27T01:13:20.658Z,5.28
2023-08-27T01:16:23.390Z,4.60
2023-08-27T01:19:26.083Z,3.72
2023-08-27T01:22:30.358Z,4.00
2023-08-27T01:25:42.738Z,4.10
2023-08-27T01:28:47.534Z,3.42
2023-08-27T01:31:53.955Z,3.53
2023-08-27T01:34:58.010Z,4.78
2023-08-27T01:38:02.058Z,3.75
2023-08-27T01:41:04.749Z,3.97
2023-08-27T01:44:07.473Z,3.85
2023-08-27T01:47:10.126Z,4.03
2023-08-27T01:50:12.818Z,4.05
2023-08-27T01:53:16.856Z,6.18
2023-08-27T01:56:19.612Z,5.00
2023-08-27T01:59:22.278Z,4.22
2023-08-27T02:02:25.167Z,4.03
2023-08-27T02:05:27.911Z,4.80
2023-08-27T02:08:31.984Z,4.57
2023-08-27T02:11:34.754Z,4.70
2023-08-27T02:14:39.682Z,3.05
2023-08-27T02:17:42.306Z,3.95
2023-08-27T02:20:45.314Z,3.25
2023-08-27T02:23:49.366Z,3.30
2023-08-27T02:26:52.033Z,4.95
2023-08-27T02:29:54.676Z,3.15
2023-08-27T02:32:57.709Z,3.35
2023-08-27T02:36:00.626Z,3.97
2023-08-27T02:39:04.817Z,3.25
2023-08-27T02:42:07.477Z,3.78
2023-08-27T02:45:11.243Z,4.90
2023-08-27T02:48:14.605Z,4.03
2023-08-27T02:51:17.316Z,3.53
2023-08-27T02:54:21.365Z,3.47
2023-08-27T02:57:24.127Z,3.80
2023-08-27T03:00:26.735Z,3.58
2023-08-27T03:03:29.782Z,3.22
2023-08-27T03:06:32.489Z,1.45
2023-08-27T03:09:36.470Z,1.67
2023-08-27T03:12:39.178Z,1.40
2023-08-27T03:15:41.781Z,1.30
2023-08-27T03:18:44.615Z,1.10
2023-08-27T03:21:47.342Z,1.17
2023-08-27T03:24:51.347Z,1.25
2023-08-27T03:27:54.036Z,1.10
2023-08-27T03:30:56.734Z,0.80
2023-08-27T03:33:59.467Z,1.00
2023-08-27T03:37:02.605Z,0.50
2023-08-27T03:40:08.251Z,0.68
2023-08-27T03:43:10.884Z,0.80
2023-08-27T03:46:13.774Z,0.85
2023-08-27T03:49:16.499Z,0.70
2023-08-27T03:52:19.161Z,0.63
2023-08-27T03:55:23.266Z,0.63
2023-08-27T03:58:26.649Z,0.30
2023-08-27T04:01:29.453Z,0.50
2023-08-27T04:04:33.904Z,0.70
2023-08-27T04:07:36.629Z,0.50
2023-08-27T04:10:40.711Z,0.57
2023-08-27T04:13:43.609Z,0.55
2023-08-27T04:16:46.441Z,0.80
2023-08-27T04:19:49.153Z,0.60
2023-08-27T04:22:51.847Z,0.73
2023-08-27T04:25:55.888Z,0.60
2023-08-27T04:28:58.493Z,0.50
2023-08-27T04:32:01.168Z,0.60
2023-08-27T04:35:05.482Z,0.52
2023-08-27T04:38:08.224Z,0.40
2023-08-27T04:41:12.267Z,0.40
2023-08-27T04:44:15.016Z,0.88
2023-08-27T04:47:18.405Z,0.50
2023-08-27T04:50:21.198Z,0.40
2023-08-27T04:53:23.848Z,0.80
2023-08-27T04:56:28.294Z,0.52
2023-08-27T04:59:31.002Z,0.90
2023-08-27T05:02:33.710Z,0.90
2023-08-27T05:05:37.339Z,0.75
2023-08-27T05:08:40.025Z,0.70
2023-08-27T05:11:44.101Z,1.10
2023-08-27T05:14:46.797Z,1.00
2023-08-27T05:17:49.661Z,1.17
2023-08-27T05:20:52.304Z,1.20
2023-08-27T05:23:55.039Z,0.63
2023-08-27T05:26:59.250Z,0.60
2023-08-27T05:30:01.969Z,0.65
2023-08-27T05:33:07.680Z,0.57
2023-08-27T05:36:11.691Z,0.80
2023-08-27T05:39:15.196Z,0.70
2023-08-27T05:42:19.299Z,1.02
2023-08-27T05:45:21.967Z,1.00
2023-08-27T05:48:24.720Z,0.90
2023-08-27T05:51:27.560Z,1.05
2023-08-27T05:54:30.209Z,0.85
2023-08-27T05:57:34.255Z,0.90
2023-08-27T06:00:37.273Z,1.10
2023-08-27T06:03:39.963Z,1.35
2023-08-27T06:06:42.630Z,1.70
2023-08-27T06:09:45.356Z,1.52
2023-08-27T06:12:49.428Z,1.60
2023-08-27T06:15:52.160Z,2.15
2023-08-27T06:18:54.753Z,2.58
2023-08-27T06:21:58.446Z,3.78
2023-08-27T06:25:03.620Z,3.45
2023-08-27T06:28:09.806Z,4.38
2023-08-27T06:31:12.561Z,3.63
2023-08-27T06:34:15.279Z,3.08
2023-08-27T06:37:17.943Z,4.03
2023-08-27T06:40:20.617Z,2.33
2023-08-27T06:43:24.686Z,4.72
2023-08-27T06:46:27.399Z,1.90
2023-08-27T06:49:30.194Z,3.35
2023-08-27T06:52:34.090Z,2.33
2023-08-27T06:55:36.822Z,2.88
2023-08-27T06:58:40.817Z,3.05
2023-08-27T07:01:43.500Z,3.45
2023-08-27T07:04:46.178Z,3.05
2023-08-27T07:07:48.874Z,2.58
2023-08-27T07:10:51.717Z,2.22
2023-08-27T07:13:55.842Z,1.05
2023-08-27T07:16:58.522Z,1.15
2023-08-27T07:20:01.204Z,1.33
2023-08-27T07:23:05.666Z,1.27
2023-08-27T07:26:08.421Z,1.27
2023-08-27T07:29:12.399Z,1.02
2023-08-27T07:32:15.023Z,1.10
2023-08-27T07:35:18.183Z,0.95
2023-08-27T07:38:20.932Z,0.85
2023-08-27T07:41:23.563Z,1.00
2023-08-27T07:44:27.583Z,0.82
2023-08-27T07:47:30.333Z,0.70
2023-08-27T07:50:33.084Z,0.90
2023-08-27T07:53:35.786Z,0.68
2023-08-27T07:56:38.438Z,0.60
2023-08-27T07:59:44.469Z,0.63
2023-08-27T08:02:47.239Z,0.55
2023-08-27T08:05:50.738Z,0.57
2023-08-27T08:08:53.368Z,0.82
2023-08-27T08:11:56.040Z,1.05
2023-08-27T08:15:00.055Z,1.10
2023-08-27T08:18:03.489Z,1.05
2023-08-27T08:21:06.519Z,0.50
2023-08-27T08:24:09.235Z,0.80
2023-08-27T08:27:11.925Z,0.90
2023-08-27T08:30:16.085Z,1.08
2023-08-27T08:33:18.937Z,0.60
2023-08-27T08:36:21.745Z,0.50
2023-08-27T08:39:25.741Z,0.40
2023-08-27T08:42:33.959Z,0.40
2023-08-27T08:45:39.190Z,0.70
2023-08-27T08:48:44.080Z,0.70
2023-08-27T08:51:46.797Z,0.35
2023-08-27T08:54:51.317Z,0.68
2023-08-27T08:57:56.812Z,0.30
2023-08-27T09:01:00.806Z,0.57
2023-08-27T09:04:03.908Z,0.40
2023-08-27T09:07:06.619Z,0.30
2023-08-27T09:10:10.121Z,0.32
2023-08-27T09:13:12.783Z,0.30
2023-08-27T09:16:16.995Z,0.52
2023-08-27T09:19:19.742Z,0.50
2023-08-27T09:22:22.446Z,0.60
2023-08-27T09:25:25.140Z,0.57
2023-08-27T09:28:27.753Z,0.60
2023-08-27T09:31:41.924Z,0.47
2023-08-27T09:34:44.626Z,0.70
2023-08-27T09:37:47.379Z,0.60
2023-08-27T09:40:49.996Z,0.70
2023-08-27T09:43:54.057Z,0.85
2023-08-27T09:47:04.929Z,1.17
2023-08-27T09:50:08.670Z,0.57
2023-08-27T09:53:13.537Z,0.63
2023-08-27T09:56:17.647Z,0.70
2023-08-27T09:59:20.724Z,0.73
2023-08-27T10:02:24.701Z,0.60
2023-08-27T10:05:29.099Z,0.70
2023-08-27T10:08:32.224Z,0.73
2023-08-27T10:11:35.096Z,0.82
2023-08-27T10:14:41.812Z,0.98
2023-08-27T10:17:46.129Z,0.98
2023-08-27T10:20:48.782Z,0.98
2023-08-27T10:23:51.564Z,0.60
2023-08-27T10:26:54.225Z,0.75
2023-08-27T10:29:56.866Z,0.88
2023-08-27T10:33:01.192Z,0.77
2023-08-27T10:36:05.588Z,0.80
2023-08-27T10:39:09.007Z,0.93
2023-08-27T10:42:12.165Z,0.38
2023-08-27T10:45:15.766Z,0.93
2023-08-27T10:48:26.900Z,0.73
2023-08-27T10:51:29.975Z,0.30
2023-08-27T10:54:33.278Z,0.80
2023-08-27T10:57:35.870Z,0.60
2023-08-27T11:01:04.675Z,0.20
2023-08-27T11:04:08.961Z,0.20
2023-08-27T11:07:12.257Z,0.28
2023-08-27T11:10:14.952Z,0.40
2023-08-27T11:13:36.669Z,0.88
2023-08-27T11:16:45.510Z,0.50
2023-08-27T11:19:49.606Z,0.63
2023-08-27T11:22:58.818Z,0.70
2023-08-27T11:26:02.085Z,0.22
2023-08-27T11:29:05.556Z,0.43
2023-08-27T11:32:09.020Z,0.30
2023-08-27T11:35:15.814Z,0.40
2023-08-27T11:38:18.638Z,0.52
2023-08-27T11:41:21.391Z,0.50
2023-08-27T11:44:24.336Z,0.80
2023-08-27T11:47:27.062Z,0.60
2023-08-27T11:50:31.334Z,0.57
2023-08-27T11:53:34.688Z,1.30
2023-08-27T11:56:37.786Z,0.52
2023-08-27T11:59:40.681Z,0.82
2023-08-27T12:02:43.339Z,1.05
2023-08-27T12:05:47.398Z,0.70
2023-08-27T12:08:50.693Z,0.98
2023-08-27T12:11:53.404Z,0.75
2023-08-27T12:14:56.091Z,0.88
2023-08-27T12:17:59.220Z,1.00
2023-08-27T12:21:07.633Z,1.42
2023-08-27T12:24:10.447Z,1.05
2023-08-27T12:27:16.823Z,1.48
2023-08-27T12:30:19.598Z,1.05
2023-08-27T12:33:23.368Z,0.88
2023-08-27T12:36:27.682Z,1.25
2023-08-27T12:39:30.424Z,1.10
2023-08-27T12:42:33.058Z,1.50
2023-08-27T12:45:36.185Z,1.65
2023-08-27T12:48:38.780Z,1.50
2023-08-27T12:51:42.740Z,0.60
2023-08-27T12:54:45.628Z,2.00
2023-08-27T12:57:48.274Z,1.58
2023-08-27T13:00:50.979Z,1.50
2023-08-27T13:03:53.780Z,1.83
2023-08-27T13:06:57.876Z,1.50
2023-08-27T13:10:00.566Z,2.55
2023-08-27T13:13:03.290Z,2.40
2023-08-27T13:16:06.268Z,2.55
2023-08-27T13:19:09.141Z,2.95
2023-08-27T13:22:13.229Z,3.33
2023-08-27T13:25:16.166Z,3.13
2023-08-27T13:28:18.831Z,3.03
2023-08-27T13:31:21.624Z,1.70
2023-08-27T13:34:24.692Z,1.88
2023-08-27T13:37:28.772Z,2.50
2023-08-27T13:40:31.413Z,2.17
2023-08-27T13:43:34.067Z,2.08
2023-08-27T13:46:36.757Z,1.38
2023-08-27T13:49:39.419Z,1.10
2023-08-27T13:52:43.409Z,1.23
2023-08-27T13:55:46.114Z,1.10
2023-08-27T13:58:48.794Z,1.27
2023-08-27T14:01:52.041Z,0.70
2023-08-27T14:04:54.769Z,0.95
2023-08-27T14:07:59.277Z,1.17
2023-08-27T14:11:02.228Z,0.60
2023-08-27T14:14:05.282Z,1.10
2023-08-27T14:17:07.952Z,0.77
2023-08-27T14:20:11.625Z,1.38
2023-08-27T14:23:15.925Z,2.35
2023-08-27T14:26:20.390Z,1.17
2023-08-27T14:29:23.213Z,0.98
2023-08-27T14:32:25.894Z,1.00
2023-08-27T14:35:28.592Z,1.10
2023-08-27T14:38:32.712Z,1.38
2023-08-27T14:41:35.364Z,0.98
2023-08-27T14:44:39.155Z,0.50
2023-08-27T14:47:41.833Z,0.73
2023-08-27T14:50:44.583Z,0.60
2023-08-27T14:53:48.635Z,0.88
2023-08-27T14:56:51.899Z,1.33
2023-08-27T14:59:54.601Z,1.02
2023-08-27T15:02:57.382Z,0.60
2023-08-27T15:06:00.083Z,0.82
2023-08-27T15:09:04.283Z,0.70
2023-08-27T15:12:16.364Z,1.33
2023-08-27T15:15:21.342Z,1.30
2023-08-27T15:18:25.733Z,1.10
2023-08-27T15:21:28.341Z,1.48
2023-08-27T15:24:32.404Z,1.40
2023-08-27T15:27:35.096Z,1.50
2023-08-27T15:30:37.842Z,1.48
2023-08-27T15:33:40.522Z,1.80
2023-08-27T15:36:43.262Z,1.65
2023-08-27T15:39:52.751Z,1.85
2023-08-27T15:43:19.368Z,2.03
2023-08-27T15:46:22.503Z,1.50
2023-08-27T15:49:25.219Z,1.52
2023-08-27T15:52:27.821Z,1.50
2023-08-27T15:55:31.806Z,1.50
2023-08-27T15:58:34.640Z,1.50
2023-08-27T16:01:37.388Z,3.15
2023-08-27T16:04:40.103Z,1.30
2023-08-27T16:07:42.821Z,1.40
2023-08-27T16:10:47.170Z,1.95
2023-08-27T16:13:49.828Z,1.40
2023-08-27T16:16:52.837Z,1.08
2023-08-27T16:19:55.557Z,1.20
2023-08-27T16:22:58.277Z,1.67
2023-08-27T16:26:02.338Z,1.13
2023-08-27T16:29:05.582Z,1.40
2023-08-27T16:32:08.231Z,1.33
2023-08-27T16:35:11.621Z,1.67
2023-08-27T16:38:14.325Z,1.40
2023-08-27T16:41:19.652Z,1.80
2023-08-27T16:44:23.117Z,2.50
2023-08-27T16:47:25.817Z,2.15
2023-08-27T16:50:28.468Z,1.48
2023-08-27T16:53:31.136Z,1.50
2023-08-27T16:56:35.167Z,1.88
2023-08-27T16:59:38.161Z,1.80
2023-08-27T17:02:40.906Z,1.45
2023-08-27T17:05:43.711Z,1.20
2023-08-27T17:08:46.384Z,1.40
2023-08-27T17:11:50.445Z,1.30
2023-08-27T17:14:53.249Z,1.13
2023-08-27T17:17:55.946Z,1.05
2023-08-27T17:20:59.060Z,1.02
2023-08-27T17:24:01.700Z,1.80
2023-08-27T17:27:06.621Z,1.10
2023-08-27T17:30:10.174Z,1.13
2023-08-27T17:33:13.155Z,1.20
2023-08-27T17:36:15.997Z,1.30
2023-08-27T17:39:18.674Z,1.30
2023-08-27T17:42:22.933Z,1.80
2023-08-27T17:45:25.577Z,1.10
2023-08-27T17:48:28.965Z,0.82
2023-08-27T17:51:31.678Z,1.00
2023-08-27T17:54:34.689Z,0.93
2023-08-27T17:57:38.696Z,0.85
2023-08-27T18:00:43.261Z,0.90
2023-08-27T18:03:45.999Z,0.70
2023-08-27T18:06:48.736Z,1.08
2023-08-27T18:09:51.514Z,0.80
2023-08-27T18:12:55.612Z,0.88
2023-08-27T18:15:58.362Z,0.60
2023-08-27T18:19:01.060Z,0.90
2023-08-27T18:22:03.859Z,1.00
2023-08-27T18:25:07.008Z,0.73
2023-08-27T18:28:11.133Z,0.50
2023-08-27T18:31:13.819Z,0.75
2023-08-27T18:34:16.756Z,0.70
2023-08-27T18:37:19.380Z,0.57
2023-08-27T18:40:21.970Z,0.40
2023-08-27T18:43:25.971Z,0.60
2023-08-27T18:46:29.839Z,0.68
2023-08-27T18:49:32.681Z,0.55
2023-08-27T18:52:35.347Z,0.60
2023-08-27T18:55:38.048Z,0.80
2023-08-27T18:58:42.188Z,0.98
2023-08-27T19:01:44.889Z,0.73
2023-08-27T19:04:47.918Z,0.77
2023-08-27T19:07:52.937Z,0.60
2023-08-27T19:10:55.533Z,0.68
2023-08-27T19:13:59.495Z,0.90
2023-08-27T19:17:02.127Z,0.88
2023-08-27T19:20:06.007Z,1.00
2023-08-27T19:23:08.703Z,0.90
2023-08-27T19:26:17.087Z,1.20
2023-08-27T19:29:22.023Z,2.35
2023-08-27T19:32:24.800Z,0.90
2023-08-27T19:35:27.477Z,0.77
2023-08-27T19:38:30.079Z,0.80
2023-08-27T19:41:32.785Z,0.80
2023-08-27T19:44:36.800Z,0.90
2023-08-27T19:47:41.110Z,0.90
2023-08-27T19:50:43.886Z,0.60
2023-08-27T19:53:46.676Z,0.80
2023-08-27T19:56:49.379Z,0.93
2023-08-27T19:59:54.493Z,0.85
2023-08-27T20:02:57.141Z,0.70
2023-08-27T20:05:59.859Z,0.95
2023-08-27T20:09:02.602Z,0.63
2023-08-27T20:12:05.967Z,0.90
2023-08-27T20:15:11.313Z,1.20
2023-08-27T20:18:15.994Z,0.88
2023-08-27T20:21:18.635Z,0.90
2023-08-27T20:24:21.281Z,1.05
2023-08-27T20:27:24.020Z,0.65
2023-08-27T20:30:29.707Z,0.80
2023-08-27T20:33:32.383Z,0.85
2023-08-27T20:36:35.388Z,0.90
2023-08-27T20:39:38.292Z,1.02
2023-08-27T20:42:41.791Z,1.27
2023-08-27T20:45:45.850Z,0.55
2023-08-27T20:48:48.553Z,0.95
2023-08-27T20:51:51.240Z,0.85
2023-08-27T20:54:53.932Z,0.90
2023-08-27T20:57:56.598Z,1.20
2023-08-27T21:01:01.220Z,1.00
2023-08-27T21:04:04.440Z,0.90
2023-08-27T21:07:07.106Z,1.15
2023-08-27T21:10:11.093Z,1.05
2023-08-27T21:13:13.785Z,0.90
2023-08-27T21:16:17.789Z,0.98
2023-08-27T21:19:20.555Z,0.82
2023-08-27T21:22:23.236Z,0.73
2023-08-27T21:25:25.923Z,1.13
2023-08-27T21:28:28.653Z,0.98
2023-08-27T21:31:47.996Z,0.70
2023-08-27T21:34:55.526Z,1.10
2023-08-27T21:37:58.103Z,0.80
2023-08-27T21:41:00.749Z,0.95
2023-08-27T21:44:03.489Z,1.08
2023-08-27T21:47:07.774Z,1.30
2023-08-27T21:50:10.528Z,1.10
2023-08-27T21:53:13.398Z,1.25
2023-08-27T21:56:16.190Z,1.20
2023-08-27T21:59:18.857Z,1.10
2023-08-27T22:02:22.912Z,1.27
2023-08-27T22:05:25.842Z,1.20
2023-08-27T22:08:28.620Z,0.88
2023-08-27T22:11:32.044Z,1.58
2023-08-27T22:14:36.363Z,1.55
2023-08-27T22:17:41.479Z,1.17
2023-08-27T22:20:44.930Z,1.50
2023-08-27T22:23:47.560Z,1.42
2023-08-27T22:26:50.306Z,1.30
2023-08-27T22:29:53.002Z,1.52
2023-08-27T22:32:57.127Z,1.30
2023-08-27T22:35:59.867Z,1.65
2023-08-27T22:39:02.609Z,1.92
2023-08-27T22:42:05.667Z,1.25
2023-08-27T22:45:09.444Z,1.33
2023-08-27T22:48:13.429Z,1.30
2023-08-27T22:51:16.060Z,1.27
2023-08-27T22:54:18.692Z,1.92
2023-08-27T22:57:21.370Z,1.63
2023-08-27T23:00:24.137Z,1.83
2023-08-27T23:03:28.192Z,1.60
2023-08-27T23:06:30.952Z,1.15
2023-08-27T23:09:33.693Z,1.70
2023-08-27T23:12:36.297Z,1.40
2023-08-27T23:15:39.552Z,1.90
2023-08-27T23:18:43.601Z,1.77
2023-08-27T23:21:46.318Z,1.45
2023-08-27T23:24:49.052Z,1.60
2023-08-27T23:27:51.731Z,2.33
2023-08-27T23:30:59.104Z,0.90
2023-08-27T23:34:03.213Z,1.15
2023-08-27T23:37:05.865Z,1.55
2023-08-27T23:40:11.115Z,2.40
2023-08-27T23:43:13.973Z,2.05
2023-08-27T23:46:16.698Z,1.77
2023-08-27T23:49:20.726Z,2.20
2023-08-27T23:52:23.388Z,2.33
2023-08-27T23:55:25.989Z,2.53
2023-08-27T23:58:28.676Z,1.98
